sensor_id;sensor_type;location;lat;lon;timestamp;pressure;altitude;pressure_sealevel;temperature;humidity
18819;BME280;9537;45.594;9.294;2023-04-29T00:00:06;99544.19;;;17.57;70.83
18819;BME280;9537;45.594;9.294;2023-04-29T00:01:12;99541.72;;;17.55;70.96
18819;BME280;9537;45.594;9.294;2023-04-29T00:02:19;99547.66;;;17.58;70.60
18819;BME280;9537;45.594;9.294;2023-04-29T00:03:25;99545.00;;;17.58;70.68
18819;BME280;9537;45.594;9.294;2023-04-29T00:04:33;99540.09;;;17.54;70.90
18819;BME280;9537;45.594;9.294;2023-04-29T00:05:35;99538.84;;;17.57;70.97
18819;BME280;9537;45.594;9.294;2023-04-29T00:06:41;99531.25;;;17.54;71.15
18819;BME280;9537;45.594;9.294;2023-04-29T00:07:48;99532.28;;;17.53;71.15
18819;BME280;9537;45.594;9.294;2023-04-29T00:08:54;99531.25;;;17.54;71.24
18819;BME280;9537;45.594;9.294;2023-04-29T00:10:01;99525.31;;;17.52;71.34
18819;BME280;9537;45.594;9.294;2023-04-29T00:11:09;99518.56;;;17.49;71.56
18819;BME280;9537;45.594;9.294;2023-04-29T00:12:16;99530.28;;;17.48;71.41
18819;BME280;9537;45.594;9.294;2023-04-29T00:13:23;99525.38;;;17.45;71.49
18819;BME280;9537;45.594;9.294;2023-04-29T00:14:29;99524.34;;;17.46;71.54
18819;BME280;9537;45.594;9.294;2023-04-29T00:15:36;99525.38;;;17.45;71.72
18819;BME280;9537;45.594;9.294;2023-04-29T00:16:43;99524.34;;;17.46;71.68
18819;BME280;9537;45.594;9.294;2023-04-29T00:17:51;99513.66;;;17.46;71.32
18819;BME280;9537;45.594;9.294;2023-04-29T00:18:57;99512.03;;;17.45;71.51
18819;BME280;9537;45.594;9.294;2023-04-29T00:20:06;99502.38;;;17.44;71.75
18819;BME280;9537;45.594;9.294;2023-04-29T00:21:12;99506.91;;;17.44;71.85
18819;BME280;9537;45.594;9.294;2023-04-29T00:22:19;99506.56;;;17.40;72.05
18819;BME280;9537;45.594;9.294;2023-04-29T00:23:27;99505.50;;;17.41;72.23
18819;BME280;9537;45.594;9.294;2023-04-29T00:24:34;99507.56;;;17.39;72.21
18819;BME280;9537;45.594;9.294;2023-04-29T00:25:40;99507.19;;;17.36;72.33
18819;BME280;9537;45.594;9.294;2023-04-29T00:26:49;99513.16;;;17.38;72.39
18819;BME280;9537;45.594;9.294;2023-04-29T00:27:50;99510.69;;;17.36;72.43
18819;BME280;9537;45.594;9.294;2023-04-29T00:28:57;99521.34;;;17.36;72.48
18819;BME280;9537;45.594;9.294;2023-04-29T00:30:03;99516.03;;;17.36;72.75
18819;BME280;9537;45.594;9.294;2023-04-29T00:31:11;99512.97;;;17.32;72.57
18819;BME280;9537;45.594;9.294;2023-04-29T00:32:17;99510.09;;;17.34;72.44
18819;BME280;9537;45.594;9.294;2023-04-29T00:33:19;99512.16;;;17.32;72.41
18819;BME280;9537;45.594;9.294;2023-04-29T00:34:25;99504.78;;;17.34;72.29
18819;BME280;9537;45.594;9.294;2023-04-29T00:35:33;99504.78;;;17.34;72.59
18819;BME280;9537;45.594;9.294;2023-04-29T00:36:39;99510.31;;;17.32;72.69
18819;BME280;9537;45.594;9.294;2023-04-29T00:37:46;99495.09;;;17.33;72.46
18819;BME280;9537;45.594;9.294;2023-04-29T00:38:52;99505.94;;;17.38;72.27
18819;BME280;9537;45.594;9.294;2023-04-29T00:39:54;99503.72;;;17.35;72.50
18819;BME280;9537;45.594;9.294;2023-04-29T00:41:00;99497.56;;;17.34;72.41
18819;BME280;9537;45.594;9.294;2023-04-29T00:42:08;99495.09;;;17.33;72.39
18819;BME280;9537;45.594;9.294;2023-04-29T00:43:15;99489.59;;;17.28;72.66
18819;BME280;9537;45.594;9.294;2023-04-29T00:44:22;99492.72;;;17.25;72.93
18819;BME280;9537;45.594;9.294;2023-04-29T00:45:28;99495.38;;;17.25;72.99
18819;BME280;9537;45.594;9.294;2023-04-29T00:46:35;99497.25;;;17.24;73.19
18819;BME280;9537;45.594;9.294;2023-04-29T00:47:41;99502.38;;;17.26;73.43
18819;BME280;9537;45.594;9.294;2023-04-29T00:48:48;99502.94;;;17.28;73.29
18819;BME280;9537;45.594;9.294;2023-04-29T00:49:54;99499.09;;;17.24;73.37
18819;BME280;9537;45.594;9.294;2023-04-29T00:50:56;99502.81;;;17.23;73.46
18819;BME280;9537;45.594;9.294;2023-04-29T00:52:02;99500.69;;;17.31;73.00
18819;BME280;9537;45.594;9.294;2023-04-29T00:53:10;99495.78;;;17.28;73.07
18819;BME280;9537;45.594;9.294;2023-04-29T00:54:17;99502.50;;;17.31;73.12
18819;BME280;9537;45.594;9.294;2023-04-29T00:55:32;99502.38;;;17.26;73.28
18819;BME280;9537;45.594;9.294;2023-04-29T00:56:38;99501.78;;;17.24;73.29
18819;BME280;9537;45.594;9.294;2023-04-29T00:57:44;99505.50;;;17.23;73.30
18819;BME280;9537;45.594;9.294;2023-04-29T00:58:47;99513.09;;;17.19;73.24
18819;BME280;9537;45.594;9.294;2023-04-29T00:59:56;99506.50;;;17.22;73.23
18819;BME280;9537;45.594;9.294;2023-04-29T01:01:03;99509.19;;;17.22;73.44
18819;BME280;9537;45.594;9.294;2023-04-29T01:02:10;99507.75;;;17.19;73.53
18819;BME280;9537;45.594;9.294;2023-04-29T01:03:17;99500.59;;;17.20;73.54
18819;BME280;9537;45.594;9.294;2023-04-29T01:04:25;99513.94;;;17.20;73.56
18819;BME280;9537;45.594;9.294;2023-04-29T01:05:26;99499.75;;;17.19;73.53
18819;BME280;9537;45.594;9.294;2023-04-29T01:06:43;99516.38;;;17.21;73.45
18819;BME280;9537;45.594;9.294;2023-04-29T01:07:57;99515.13;;;17.24;73.50
18819;BME280;9537;45.594;9.294;2023-04-29T01:09:21;99520.22;;;17.25;73.18
18819;BME280;9537;45.594;9.294;2023-04-29T01:10:38;99508.81;;;17.18;73.42
18819;BME280;9537;45.594;9.294;2023-04-29T01:11:54;99508.59;;;17.20;73.40
18819;BME280;9537;45.594;9.294;2023-04-29T01:13:06;99509.19;;;17.22;73.35
18819;BME280;9537;45.594;9.294;2023-04-29T01:14:15;99510.22;;;17.21;73.32
18819;BME280;9537;45.594;9.294;2023-04-29T01:15:22;99511.47;;;17.18;73.66
18819;BME280;9537;45.594;9.294;2023-04-29T01:16:36;99511.69;;;17.17;73.62
18819;BME280;9537;45.594;9.294;2023-04-29T01:17:47;99516.00;;;17.18;73.64
18819;BME280;9537;45.594;9.294;2023-04-29T01:18:57;99517.19;;;17.22;73.33
18819;BME280;9537;45.594;9.294;2023-04-29T01:20:08;99517.00;;;17.17;73.38
18819;BME280;9537;45.594;9.294;2023-04-29T01:21:16;99522.59;;;17.15;73.58
18819;BME280;9537;45.594;9.294;2023-04-29T01:22:22;99509.44;;;17.14;73.72
18819;BME280;9537;45.594;9.294;2023-04-29T01:23:31;99514.78;;;17.14;73.71
18819;BME280;9537;45.594;9.294;2023-04-29T01:24:37;99511.75;;;17.10;73.86
18819;BME280;9537;45.594;9.294;2023-04-29T01:25:44;99511.31;;;17.13;74.00
18819;BME280;9537;45.594;9.294;2023-04-29T01:26:54;99509.69;;;17.12;74.01
18819;BME280;9537;45.594;9.294;2023-04-29T01:28:10;99506.41;;;17.10;74.11
18819;BME280;9537;45.594;9.294;2023-04-29T01:29:26;99498.66;;;17.08;74.31
18819;BME280;9537;45.594;9.294;2023-04-29T01:30:43;99489.59;;;17.09;73.90
18819;BME280;9537;45.594;9.294;2023-04-29T01:31:57;99478.91;;;17.09;74.29
18819;BME280;9537;45.594;9.294;2023-04-29T01:33:14;99479.72;;;17.10;73.98
18819;BME280;9537;45.594;9.294;2023-04-29T01:34:29;99479.28;;;17.13;73.73
18819;BME280;9537;45.594;9.294;2023-04-29T01:35:44;99489.34;;;17.11;73.84
18819;BME280;9537;45.594;9.294;2023-04-29T01:36:59;99491.66;;;17.07;73.90
18819;BME280;9537;45.594;9.294;2023-04-29T01:38:17;99497.88;;;17.01;74.12
18819;BME280;9537;45.594;9.294;2023-04-29T01:39:32;99495.81;;;17.03;74.19
18819;BME280;9537;45.594;9.294;2023-04-29T01:40:47;99487.81;;;17.03;74.04
18819;BME280;9537;45.594;9.294;2023-04-29T01:42:07;99495.81;;;17.03;74.17
18819;BME280;9537;45.594;9.294;2023-04-29T01:43:17;99506.09;;;17.00;74.48
18819;BME280;9537;45.594;9.294;2023-04-29T01:44:28;99492.75;;;17.00;74.27
18819;BME280;9537;45.594;9.294;2023-04-29T01:45:34;99486.59;;;16.99;74.44
18819;BME280;9537;45.594;9.294;2023-04-29T01:46:42;99474.91;;;17.00;74.45
18819;BME280;9537;45.594;9.294;2023-04-29T01:47:52;99469.78;;;16.99;74.64
18819;BME280;9537;45.594;9.294;2023-04-29T01:49:00;99471.25;;;16.95;74.71
18819;BME280;9537;45.594;9.294;2023-04-29T01:50:06;99484.59;;;16.95;74.73
18819;BME280;9537;45.594;9.294;2023-04-29T01:51:14;99496.25;;;17.00;74.53
18819;BME280;9537;45.594;9.294;2023-04-29T01:52:20;99507.50;;;17.02;74.31
18819;BME280;9537;45.594;9.294;2023-04-29T01:53:27;99516.34;;;17.03;74.45
18819;BME280;9537;45.594;9.294;2023-04-29T01:54:35;99514.91;;;17.00;74.56
18819;BME280;9537;45.594;9.294;2023-04-29T01:55:42;99516.78;;;17.00;74.48
18819;BME280;9537;45.594;9.294;2023-04-29T01:56:48;99511.03;;;16.96;74.83
18819;BME280;9537;45.594;9.294;2023-04-29T01:57:56;99493.84;;;16.92;74.99
18819;BME280;9537;45.594;9.294;2023-04-29T01:59:02;99492.81;;;16.93;75.08
18819;BME280;9537;45.594;9.294;2023-04-29T02:00:10;99492.81;;;16.93;74.57
18819;BME280;9537;45.594;9.294;2023-04-29T02:01:16;99496.50;;;16.92;74.84
18819;BME280;9537;45.594;9.294;2023-04-29T02:02:23;99499.38;;;16.91;74.92
18819;BME280;9537;45.594;9.294;2023-04-29T02:03:30;99508.00;;;16.93;74.89
18819;BME280;9537;45.594;9.294;2023-04-29T02:04:36;99503.72;;;16.92;75.04
18819;BME280;9537;45.594;9.294;2023-04-29T02:05:43;99501.25;;;16.90;75.10
18819;BME280;9537;45.594;9.294;2023-04-29T02:06:45;99495.91;;;16.90;75.00
18819;BME280;9537;45.594;9.294;2023-04-29T02:07:51;99495.91;;;16.90;74.91
18819;BME280;9537;45.594;9.294;2023-04-29T02:08:58;99490.56;;;16.90;75.02
18819;BME280;9537;45.594;9.294;2023-04-29T02:10:06;99495.31;;;16.88;75.17
18819;BME280;9537;45.594;9.294;2023-04-29T02:11:13;99491.63;;;16.89;75.14
18819;BME280;9537;45.594;9.294;2023-04-29T02:12:19;99492.63;;;16.88;74.86
18819;BME280;9537;45.594;9.294;2023-04-29T02:13:26;99485.69;;;16.87;75.03
18819;BME280;9537;45.594;9.294;2023-04-29T02:14:32;99481.38;;;16.86;75.25
18819;BME280;9537;45.594;9.294;2023-04-29T02:15:40;99480.97;;;16.82;75.26
18819;BME280;9537;45.594;9.294;2023-04-29T02:16:46;99485.50;;;16.82;75.42
18819;BME280;9537;45.594;9.294;2023-04-29T02:17:53;99490.25;;;16.80;75.37
18819;BME280;9537;45.594;9.294;2023-04-29T02:18:59;99487.78;;;16.78;75.55
18819;BME280;9537;45.594;9.294;2023-04-29T02:20:07;99489.66;;;16.78;75.54
18819;BME280;9537;45.594;9.294;2023-04-29T02:21:14;99487.78;;;16.78;75.48
18819;BME280;9537;45.594;9.294;2023-04-29T02:22:21;99493.53;;;16.75;75.62
18819;BME280;9537;45.594;9.294;2023-04-29T02:23:27;99482.47;;;16.78;75.46
18819;BME280;9537;45.594;9.294;2023-04-29T02:24:34;99486.19;;;16.77;75.34
18819;BME280;9537;45.594;9.294;2023-04-29T02:25:42;99485.34;;;16.77;75.50
18819;BME280;9537;45.594;9.294;2023-04-29T02:26:50;99485.53;;;16.75;75.87
18819;BME280;9537;45.594;9.294;2023-04-29T02:27:56;99487.38;;;16.75;75.83
18819;BME280;9537;45.594;9.294;2023-04-29T02:29:02;99496.84;;;16.77;75.73
18819;BME280;9537;45.594;9.294;2023-04-29T02:30:09;99486.59;;;16.74;75.70
18819;BME280;9537;45.594;9.294;2023-04-29T02:31:16;99495.59;;;16.73;76.07
18819;BME280;9537;45.594;9.294;2023-04-29T02:32:22;99487.38;;;16.75;75.86
18819;BME280;9537;45.594;9.294;2023-04-29T02:33:29;99484.72;;;16.75;75.79
18819;BME280;9537;45.594;9.294;2023-04-29T02:34:35;99483.69;;;16.76;75.68
18819;BME280;9537;45.594;9.294;2023-04-29T02:35:43;99490.66;;;16.77;75.56
18819;BME280;9537;45.594;9.294;2023-04-29T02:36:49;99488.00;;;16.77;75.59
18819;BME280;9537;45.594;9.294;2023-04-29T02:37:56;99484.53;;;16.76;75.64
18819;BME280;9537;45.594;9.294;2023-04-29T02:39:02;99493.13;;;16.78;75.52
18819;BME280;9537;45.594;9.294;2023-04-29T02:40:10;99486.19;;;16.77;75.56
18819;BME280;9537;45.594;9.294;2023-04-29T02:41:16;99487.38;;;16.75;75.59
18819;BME280;9537;45.594;9.294;2023-04-29T02:42:23;99482.06;;;16.75;75.52
18819;BME280;9537;45.594;9.294;2023-04-29T02:43:24;99487.00;;;16.71;75.65
18819;BME280;9537;45.594;9.294;2023-04-29T02:44:35;99489.44;;;16.73;75.69
18819;BME280;9537;45.594;9.294;2023-04-29T02:45:41;99489.44;;;16.73;75.72
18819;BME280;9537;45.594;9.294;2023-04-29T02:46:48;99492.94;;;16.73;75.64
18819;BME280;9537;45.594;9.294;2023-04-29T02:47:49;99486.16;;;16.71;76.00
18819;BME280;9537;45.594;9.294;2023-04-29T02:48:56;99487.84;;;16.65;76.20
18819;BME280;9537;45.594;9.294;2023-04-29T02:50:02;99487.47;;;16.61;76.48
18819;BME280;9537;45.594;9.294;2023-04-29T02:51:04;99480.91;;;16.64;76.09
18819;BME280;9537;45.594;9.294;2023-04-29T02:52:11;99482.97;;;16.62;76.57
18819;BME280;9537;45.594;9.294;2023-04-29T02:53:19;99484.00;;;16.61;76.34
18819;BME280;9537;45.594;9.294;2023-04-29T02:54:26;99484.44;;;16.58;76.64
18819;BME280;9537;45.594;9.294;2023-04-29T02:55:33;99484.44;;;16.58;76.35
18819;BME280;9537;45.594;9.294;2023-04-29T02:56:40;99487.09;;;16.58;76.62
18819;BME280;9537;45.594;9.294;2023-04-29T02:57:47;99485.03;;;16.60;76.53
18819;BME280;9537;45.594;9.294;2023-04-29T02:58:53;99485.25;;;16.58;76.35
18819;BME280;9537;45.594;9.294;2023-04-29T03:00:00;99488.72;;;16.59;76.56
18819;BME280;9537;45.594;9.294;2023-04-29T03:01:09;99488.72;;;16.59;76.56
18819;BME280;9537;45.594;9.294;2023-04-29T03:02:15;99477.69;;;16.55;76.75
18819;BME280;9537;45.594;9.294;2023-04-29T03:03:17;99484.25;;;16.53;76.77
18819;BME280;9537;45.594;9.294;2023-04-29T03:04:23;99479.34;;;16.50;77.18
18819;BME280;9537;45.594;9.294;2023-04-29T03:05:30;99482.22;;;16.48;77.16
18819;BME280;9537;45.594;9.294;2023-04-29T03:06:36;99485.50;;;16.50;76.98
18819;BME280;9537;45.594;9.294;2023-04-29T03:07:43;99478.56;;;16.49;76.90
18819;BME280;9537;45.594;9.294;2023-04-29T03:08:49;99479.34;;;16.50;76.88
18819;BME280;9537;45.594;9.294;2023-04-29T03:09:57;99479.34;;;16.50;76.89
18819;BME280;9537;45.594;9.294;2023-04-29T03:11:03;99482.22;;;16.48;77.07
18819;BME280;9537;45.594;9.294;2023-04-29T03:12:07;99478.97;;;16.46;77.12
18819;BME280;9537;45.594;9.294;2023-04-29T03:13:14;99485.94;;;16.47;77.20
18819;BME280;9537;45.594;9.294;2023-04-29T03:14:21;99486.97;;;16.46;77.17
18819;BME280;9537;45.594;9.294;2023-04-29T03:15:27;99485.50;;;16.50;76.97
18819;BME280;9537;45.594;9.294;2023-04-29T03:16:34;99489.59;;;16.53;76.71
18819;BME280;9537;45.594;9.294;2023-04-29T03:17:40;99482.66;;;16.45;77.06
18819;BME280;9537;45.594;9.294;2023-04-29T03:18:47;99490.06;;;16.43;77.33
18819;BME280;9537;45.594;9.294;2023-04-29T03:19:53;99484.50;;;16.44;76.99
18819;BME280;9537;45.594;9.294;2023-04-29T03:21:00;99483.50;;;16.46;76.93
18819;BME280;9537;45.594;9.294;2023-04-29T03:22:06;99474.66;;;16.45;76.86
18819;BME280;9537;45.594;9.294;2023-04-29T03:23:15;99475.50;;;16.46;76.90
18819;BME280;9537;45.594;9.294;2023-04-29T03:24:21;99473.66;;;16.46;77.01
18819;BME280;9537;45.594;9.294;2023-04-29T03:25:28;99476.31;;;16.46;77.06
18819;BME280;9537;45.594;9.294;2023-04-29T03:26:29;99475.28;;;16.47;76.63
18819;BME280;9537;45.594;9.294;2023-04-29T03:27:38;99474.66;;;16.45;76.82
18819;BME280;9537;45.594;9.294;2023-04-29T03:28:44;99477.94;;;16.47;76.55
18819;BME280;9537;45.594;9.294;2023-04-29T03:29:52;99469.13;;;16.47;76.56
18819;BME280;9537;45.594;9.294;2023-04-29T03:30:58;99461.34;;;16.45;76.80
18819;BME280;9537;45.594;9.294;2023-04-29T03:32:06;99469.34;;;16.45;76.52
18819;BME280;9537;45.594;9.294;2023-04-29T03:33:07;99466.09;;;16.43;76.97
18819;BME280;9537;45.594;9.294;2023-04-29T03:34:09;99463.41;;;16.43;76.93
18819;BME280;9537;45.594;9.294;2023-04-29T03:35:11;99463.41;;;16.43;76.83
18819;BME280;9537;45.594;9.294;2023-04-29T03:36:14;99459.09;;;16.42;76.99
18819;BME280;9537;45.594;9.294;2023-04-29T03:37:21;99464.00;;;16.45;76.97
18819;BME280;9537;45.594;9.294;2023-04-29T03:38:27;99458.09;;;16.43;76.96
18819;BME280;9537;45.594;9.294;2023-04-29T03:39:34;99462.00;;;16.40;77.12
18819;BME280;9537;45.594;9.294;2023-04-29T03:40:40;99457.91;;;16.38;77.20
18819;BME280;9537;45.594;9.294;2023-04-29T03:41:42;99455.44;;;16.36;77.43
18819;BME280;9537;45.594;9.294;2023-04-29T03:42:50;99463.69;;;16.35;77.56
18819;BME280;9537;45.594;9.294;2023-04-29T03:43:57;99462.63;;;16.36;77.74
18819;BME280;9537;45.594;9.294;2023-04-29T03:45:06;99462.63;;;16.36;77.52
18819;BME280;9537;45.594;9.294;2023-04-29T03:46:13;99462.03;;;16.34;77.64
18819;BME280;9537;45.594;9.294;2023-04-29T03:47:19;99455.88;;;16.33;77.63
18819;BME280;9537;45.594;9.294;2023-04-29T03:48:21;99449.53;;;16.34;77.66
18819;BME280;9537;45.594;9.294;2023-04-29T03:49:27;99446.88;;;16.34;77.74
18819;BME280;9537;45.594;9.294;2023-04-29T03:50:29;99445.03;;;16.35;77.80
18819;BME280;9537;45.594;9.294;2023-04-29T03:51:36;99439.47;;;16.36;77.71
18819;BME280;9537;45.594;9.294;2023-04-29T03:52:43;99442.13;;;16.36;77.37
18819;BME280;9537;45.594;9.294;2023-04-29T03:53:49;99437.63;;;16.37;77.13
18819;BME280;9537;45.594;9.294;2023-04-29T03:54:57;99437.41;;;16.38;77.26
18819;BME280;9537;45.594;9.294;2023-04-29T03:56:04;99441.50;;;16.41;77.15
18819;BME280;9537;45.594;9.294;2023-04-29T03:57:11;99432.69;;;16.40;77.08
18819;BME280;9537;45.594;9.294;2023-04-29T03:58:19;99440.44;;;16.42;76.85
18819;BME280;9537;45.594;9.294;2023-04-29T03:59:26;99447.44;;;16.43;76.88
18819;BME280;9537;45.594;9.294;2023-04-29T04:00:31;99440.00;;;16.45;76.81
18819;BME280;9537;45.594;9.294;2023-04-29T04:01:39;99442.69;;;16.45;76.97
18819;BME280;9537;45.594;9.294;2023-04-29T04:02:45;99442.09;;;16.43;77.58
18819;BME280;9537;45.594;9.294;2023-04-29T04:03:47;99450.09;;;16.43;77.01
18819;BME280;9537;45.594;9.294;2023-04-29T04:04:54;99450.28;;;16.41;77.27
18819;BME280;9537;45.594;9.294;2023-04-29T04:06:00;99451.09;;;16.42;77.22
18819;BME280;9537;45.594;9.294;2023-04-29T04:07:07;99450.28;;;16.41;77.25
18819;BME280;9537;45.594;9.294;2023-04-29T04:08:13;99448.44;;;16.42;77.17
18819;BME280;9537;45.594;9.294;2023-04-29T04:09:19;99449.06;;;16.44;76.98
18819;BME280;9537;45.594;9.294;2023-04-29T04:10:22;99444.75;;;16.43;77.16
18819;BME280;9537;45.594;9.294;2023-04-29T04:11:28;99445.56;;;16.43;77.08
18819;BME280;9537;45.594;9.294;2023-04-29T04:12:35;99444.53;;;16.44;76.98
18819;BME280;9537;45.594;9.294;2023-04-29T04:13:37;99442.09;;;16.43;77.21
18819;BME280;9537;45.594;9.294;2023-04-29T04:14:44;99443.94;;;16.42;77.17
18819;BME280;9537;45.594;9.294;2023-04-29T04:15:51;99451.94;;;16.42;77.05
18819;BME280;9537;45.594;9.294;2023-04-29T04:16:57;99449.47;;;16.41;77.05
18819;BME280;9537;45.594;9.294;2023-04-29T04:18:04;99452.16;;;16.41;77.15
18819;BME280;9537;45.594;9.294;2023-04-29T04:19:11;99446.81;;;16.41;77.06
18819;BME280;9537;45.594;9.294;2023-04-29T04:20:17;99451.09;;;16.42;77.10
18819;BME280;9537;45.594;9.294;2023-04-29T04:21:24;99452.16;;;16.41;77.22
18819;BME280;9537;45.594;9.294;2023-04-29T04:22:32;99455.63;;;16.41;77.53
18819;BME280;9537;45.594;9.294;2023-04-29T04:23:39;99451.34;;;16.40;77.51
18819;BME280;9537;45.594;9.294;2023-04-29T04:24:45;99446.81;;;16.41;77.31
18819;BME280;9537;45.594;9.294;2023-04-29T04:25:52;99443.94;;;16.42;76.84
18819;BME280;9537;45.594;9.294;2023-04-29T04:26:58;99439.44;;;16.43;76.49
18819;BME280;9537;45.594;9.294;2023-04-29T04:28:06;99436.53;;;16.44;76.63
18819;BME280;9537;45.594;9.294;2023-04-29T04:29:13;99441.88;;;16.44;76.62
18819;BME280;9537;45.594;9.294;2023-04-29T04:30:20;99441.88;;;16.44;76.58
18819;BME280;9537;45.594;9.294;2023-04-29T04:31:27;99448.84;;;16.46;76.43
18819;BME280;9537;45.594;9.294;2023-04-29T04:32:34;99447.81;;;16.47;76.72
18819;BME280;9537;45.594;9.294;2023-04-29T04:33:40;99452.31;;;16.46;76.67
18819;BME280;9537;45.594;9.294;2023-04-29T04:34:47;99457.22;;;16.49;76.63
18819;BME280;9537;45.594;9.294;2023-04-29T04:35:48;99450.03;;;16.50;76.69
18819;BME280;9537;45.594;9.294;2023-04-29T04:36:55;99453.50;;;16.50;76.66
18819;BME280;9537;45.594;9.294;2023-04-29T04:37:56;99453.50;;;16.50;76.97
18819;BME280;9537;45.594;9.294;2023-04-29T04:39:03;99455.97;;;16.52;76.86
18819;BME280;9537;45.594;9.294;2023-04-29T04:40:11;99457.84;;;16.51;76.87
18819;BME280;9537;45.594;9.294;2023-04-29T04:41:18;99465.00;;;16.51;77.25
18819;BME280;9537;45.594;9.294;2023-04-29T04:42:24;99455.56;;;16.48;77.07
18819;BME280;9537;45.594;9.294;2023-04-29T04:43:31;99457.22;;;16.49;77.36
18819;BME280;9537;45.594;9.294;2023-04-29T04:44:38;99450.25;;;16.48;77.35
18819;BME280;9537;45.594;9.294;2023-04-29T04:45:46;99453.94;;;16.47;77.53
18819;BME280;9537;45.594;9.294;2023-04-29T04:46:52;99463.00;;;16.46;77.78
18819;BME280;9537;45.594;9.294;2023-04-29T04:47:58;99462.38;;;16.44;78.03
18819;BME280;9537;45.594;9.294;2023-04-29T04:49:04;99458.09;;;16.43;78.35
18819;BME280;9537;45.594;9.294;2023-04-29T04:50:12;99458.53;;;16.40;78.91
18819;BME280;9537;45.594;9.294;2023-04-29T04:51:13;99462.19;;;16.39;79.01
18819;BME280;9537;45.594;9.294;2023-04-29T04:52:20;99467.97;;;16.36;79.14
18819;BME280;9537;45.594;9.294;2023-04-29T04:53:26;99471.06;;;16.33;79.24
18819;BME280;9537;45.594;9.294;2023-04-29T04:54:33;99466.78;;;16.32;79.40
18819;BME280;9537;45.594;9.294;2023-04-29T04:55:40;99472.09;;;16.32;79.41
18819;BME280;9537;45.594;9.294;2023-04-29T04:56:47;99475.78;;;16.31;79.32
18819;BME280;9537;45.594;9.294;2023-04-29T04:57:53;99476.38;;;16.33;79.33
18819;BME280;9537;45.594;9.294;2023-04-29T04:59:00;99481.09;;;16.31;79.21
18819;BME280;9537;45.594;9.294;2023-04-29T05:00:08;99479.28;;;16.31;79.26
18819;BME280;9537;45.594;9.294;2023-04-29T05:01:15;99479.47;;;16.30;79.43
18819;BME280;9537;45.594;9.294;2023-04-29T05:02:21;99482.97;;;16.30;79.34
18819;BME280;9537;45.594;9.294;2023-04-29T05:03:29;99488.72;;;16.27;79.53
18819;BME280;9537;45.594;9.294;2023-04-29T05:04:30;99486.88;;;16.28;79.39
18819;BME280;9537;45.594;9.294;2023-04-29T05:05:37;99481.78;;;16.26;79.27
18819;BME280;9537;45.594;9.294;2023-04-29T05:06:43;99495.91;;;16.27;79.46
18819;BME280;9537;45.594;9.294;2023-04-29T05:07:51;99500.63;;;16.25;79.85
18819;BME280;9537;45.594;9.294;2023-04-29T05:08:58;99489.97;;;16.25;79.90
18819;BME280;9537;45.594;9.294;2023-04-29T05:09:59;99497.97;;;16.25;80.05
18819;BME280;9537;45.594;9.294;2023-04-29T05:11:14;99501.66;;;16.24;80.16
18819;BME280;9537;45.594;9.294;2023-04-29T05:12:22;99496.09;;;16.25;79.90
18819;BME280;9537;45.594;9.294;2023-04-29T05:13:25;99496.09;;;16.25;79.98
18819;BME280;9537;45.594;9.294;2023-04-29T05:14:28;99505.38;;;16.23;80.07
18819;BME280;9537;45.594;9.294;2023-04-29T05:15:37;99503.91;;;16.27;79.90
18819;BME280;9537;45.594;9.294;2023-04-29T05:16:43;99502.84;;;16.28;80.11
18819;BME280;9537;45.594;9.294;2023-04-29T05:17:51;99511.69;;;16.28;80.74
18819;BME280;9537;45.594;9.294;2023-04-29T05:18:57;99498.56;;;16.27;80.27
18819;BME280;9537;45.594;9.294;2023-04-29T05:20:05;99499.63;;;16.26;80.64
18819;BME280;9537;45.594;9.294;2023-04-29T05:21:11;99503.09;;;16.26;80.54
18819;BME280;9537;45.594;9.294;2023-04-29T05:22:18;99502.84;;;16.28;80.38
18819;BME280;9537;45.594;9.294;2023-04-29T05:23:24;99502.44;;;16.31;80.34
18819;BME280;9537;45.594;9.294;2023-04-29T05:24:31;99505.09;;;16.31;80.46
18819;BME280;9537;45.594;9.294;2023-04-29T05:25:37;99505.94;;;16.31;80.45
18819;BME280;9537;45.594;9.294;2023-04-29T05:26:44;99504.66;;;16.34;80.18
18819;BME280;9537;45.594;9.294;2023-04-29T05:27:50;99507.94;;;16.36;80.27
18819;BME280;9537;45.594;9.294;2023-04-29T05:28:58;99513.06;;;16.37;80.09
18819;BME280;9537;45.594;9.294;2023-04-29T05:30:05;99510.19;;;16.39;80.00
18819;BME280;9537;45.594;9.294;2023-04-29T05:31:13;99507.31;;;16.40;80.02
18819;BME280;9537;45.594;9.294;2023-04-29T05:32:15;99508.13;;;16.41;79.97
18819;BME280;9537;45.594;9.294;2023-04-29T05:33:22;99507.69;;;16.44;80.22
18819;BME280;9537;45.594;9.294;2023-04-29T05:34:28;99508.31;;;16.46;80.35
18819;BME280;9537;45.594;9.294;2023-04-29T05:35:35;99511.56;;;16.48;80.61
18819;BME280;9537;45.594;9.294;2023-04-29T05:36:41;99512.16;;;16.50;81.04
18819;BME280;9537;45.594;9.294;2023-04-29T05:37:43;99506.03;;;16.50;80.92
18819;BME280;9537;45.594;9.294;2023-04-29T05:38:50;99512.78;;;16.52;81.55
18819;BME280;9537;45.594;9.294;2023-04-29T05:39:52;99508.47;;;16.51;81.84
18819;BME280;9537;45.594;9.294;2023-04-29T05:40:58;99508.25;;;16.53;82.83
18819;BME280;9537;45.594;9.294;2023-04-29T05:42:04;99510.91;;;16.53;83.12
18819;BME280;9537;45.594;9.294;2023-04-29T05:43:11;99512.78;;;16.52;82.56
18819;BME280;9537;45.594;9.294;2023-04-29T05:44:18;99513.59;;;16.53;82.47
18819;BME280;9537;45.594;9.294;2023-04-29T05:45:25;99507.63;;;16.51;82.11
18819;BME280;9537;45.594;9.294;2023-04-29T05:46:32;99515.44;;;16.52;82.35
18819;BME280;9537;45.594;9.294;2023-04-29T05:47:39;99523.63;;;16.51;82.09
18819;BME280;9537;45.594;9.294;2023-04-29T05:48:45;99520.16;;;16.50;81.67
18819;BME280;9537;45.594;9.294;2023-04-29T05:49:52;99523.44;;;16.52;82.09
18819;BME280;9537;45.594;9.294;2023-04-29T05:50:58;99521.59;;;16.53;83.04
18819;BME280;9537;45.594;9.294;2023-04-29T05:52:05;99529.81;;;16.51;85.30
18819;BME280;9537;45.594;9.294;2023-04-29T05:53:11;99530.38;;;16.53;85.46
18819;BME280;9537;45.594;9.294;2023-04-29T05:54:14;99524.84;;;16.55;86.10
18819;BME280;9537;45.594;9.294;2023-04-29T05:55:20;99532.63;;;16.56;86.66
18819;BME280;9537;45.594;9.294;2023-04-29T05:56:27;99530.38;;;16.53;86.82
18819;BME280;9537;45.594;9.294;2023-04-29T05:57:33;99531.19;;;16.54;86.78
18819;BME280;9537;45.594;9.294;2023-04-29T05:58:40;99539.19;;;16.54;86.62